sensor_id;sensor_type;location;lat;lon;timestamp;P1;durP1;ratioP1;P2;durP2;ratioP2
67065;SDS011;53978;43.846;25.952;2023-01-10T00:00:48;16.85;;;8.68;;
67065;SDS011;53978;43.846;25.952;2023-01-10T00:03:13;17.90;;;9.13;;
67065;SDS011;53978;43.846;25.952;2023-01-10T00:05:39;15.02;;;9.00;;
67065;SDS011;53978;43.846;25.952;2023-01-10T00:08:06;17.13;;;8.43;;
67065;SDS011;53978;43.846;25.952;2023-01-10T00:10:32;15.45;;;8.38;;
67065;SDS011;53978;43.846;25.952;2023-01-10T00:12:57;15.38;;;8.77;;
67065;SDS011;53978;43.846;25.952;2023-01-10T00:15:41;14.35;;;7.72;;
67065;SDS011;53978;43.846;25.952;2023-01-10T00:18:07;14.57;;;6.72;;
67065;SDS011;53978;43.846;25.952;2023-01-10T00:20:32;17.83;;;7.72;;
67065;SDS011;53978;43.846;25.952;2023-01-10T00:22:57;16.45;;;8.18;;
67065;SDS011;53978;43.846;25.952;2023-01-10T00:25:23;15.43;;;8.15;;
67065;SDS011;53978;43.846;25.952;2023-01-10T00:27:49;20.10;;;8.93;;
67065;SDS011;53978;43.846;25.952;2023-01-10T00:30:25;13.88;;;7.07;;
67065;SDS011;53978;43.846;25.952;2023-01-10T00:32:51;16.30;;;8.32;;
67065;SDS011;53978;43.846;25.952;2023-01-10T00:35:17;14.05;;;7.82;;
67065;SDS011;53978;43.846;25.952;2023-01-10T00:37:42;21.90;;;8.82;;
67065;SDS011;53978;43.846;25.952;2023-01-10T00:40:09;16.42;;;8.75;;
67065;SDS011;53978;43.846;25.952;2023-01-10T00:42:36;16.85;;;8.60;;
67065;SDS011;53978;43.846;25.952;2023-01-10T00:45:20;14.18;;;7.82;;
67065;SDS011;53978;43.846;25.952;2023-01-10T00:47:48;15.07;;;8.38;;
67065;SDS011;53978;43.846;25.952;2023-01-10T00:50:14;18.52;;;9.20;;
67065;SDS011;53978;43.846;25.952;2023-01-10T00:52:39;19.00;;;9.18;;
67065;SDS011;53978;43.846;25.952;2023-01-10T00:55:05;17.63;;;9.55;;
67065;SDS011;53978;43.846;25.952;2023-01-10T00:57:31;18.75;;;9.77;;
67065;SDS011;53978;43.846;25.952;2023-01-10T00:59:59;19.58;;;9.57;;
67065;SDS011;53978;43.846;25.952;2023-01-10T01:02:24;21.52;;;9.50;;
67065;SDS011;53978;43.846;25.952;2023-01-10T01:04:49;16.58;;;9.50;;
67065;SDS011;53978;43.846;25.952;2023-01-10T01:07:15;19.30;;;9.18;;
67065;SDS011;53978;43.846;25.952;2023-01-10T01:09:40;16.45;;;8.10;;
67065;SDS011;53978;43.846;25.952;2023-01-10T01:12:25;18.77;;;8.98;;
67065;SDS011;53978;43.846;25.952;2023-01-10T01:14:51;18.55;;;8.80;;
67065;SDS011;53978;43.846;25.952;2023-01-10T01:17:16;19.27;;;9.20;;
67065;SDS011;53978;43.846;25.952;2023-01-10T01:19:42;17.88;;;9.68;;
67065;SDS011;53978;43.846;25.952;2023-01-10T01:22:08;20.30;;;9.18;;
67065;SDS011;53978;43.846;25.952;2023-01-10T01:24:33;17.00;;;9.40;;
67065;SDS011;53978;43.846;25.952;2023-01-10T01:26:59;19.05;;;10.23;;
67065;SDS011;53978;43.846;25.952;2023-01-10T01:29:24;14.77;;;8.98;;
67065;SDS011;53978;43.846;25.952;2023-01-10T01:31:50;20.23;;;9.55;;
67065;SDS011;53978;43.846;25.952;2023-01-10T01:34:15;16.58;;;8.85;;
67065;SDS011;53978;43.846;25.952;2023-01-10T01:36:40;19.67;;;10.50;;
67065;SDS011;53978;43.846;25.952;2023-01-10T01:39:06;20.33;;;9.48;;
67065;SDS011;53978;43.846;25.952;2023-01-10T01:41:31;15.65;;;9.02;;
67065;SDS011;53978;43.846;25.952;2023-01-10T01:44:16;21.33;;;10.07;;
67065;SDS011;53978;43.846;25.952;2023-01-10T01:46:51;17.58;;;10.10;;
67065;SDS011;53978;43.846;25.952;2023-01-10T01:49:24;17.15;;;9.30;;
67065;SDS011;53978;43.846;25.952;2023-01-10T01:51:50;19.67;;;10.00;;
67065;SDS011;53978;43.846;25.952;2023-01-10T01:54:20;20.38;;;10.05;;
67065;SDS011;53978;43.846;25.952;2023-01-10T01:56:57;17.85;;;9.65;;
67065;SDS011;53978;43.846;25.952;2023-01-10T01:59:29;21.38;;;9.27;;
67065;SDS011;53978;43.846;25.952;2023-01-10T02:02:09;17.25;;;9.18;;
67065;SDS011;53978;43.846;25.952;2023-01-10T02:04:41;21.38;;;10.20;;
67065;SDS011;53978;43.846;25.952;2023-01-10T02:07:11;23.45;;;9.65;;
67065;SDS011;53978;43.846;25.952;2023-01-10T02:09:40;18.33;;;10.20;;
67065;SDS011;53978;43.846;25.952;2023-01-10T02:12:12;20.08;;;10.52;;
67065;SDS011;53978;43.846;25.952;2023-01-10T02:14:38;21.08;;;9.95;;
67065;SDS011;53978;43.846;25.952;2023-01-10T02:17:07;17.00;;;9.52;;
67065;SDS011;53978;43.846;25.952;2023-01-10T02:19:53;16.67;;;8.82;;
67065;SDS011;53978;43.846;25.952;2023-01-10T02:25:24;16.15;;;7.72;;
67065;SDS011;53978;43.846;25.952;2023-01-10T02:38:53;17.95;;;8.73;;
67065;SDS011;53978;43.846;25.952;2023-01-10T02:46:45;20.63;;;9.10;;
67065;SDS011;53978;43.846;25.952;2023-01-10T02:49:12;17.65;;;9.63;;
67065;SDS011;53978;43.846;25.952;2023-01-10T02:51:38;17.67;;;9.55;;
67065;SDS011;53978;43.846;25.952;2023-01-10T02:54:06;18.08;;;9.75;;
67065;SDS011;53978;43.846;25.952;2023-01-10T02:59:40;19.50;;;9.32;;
67065;SDS011;53978;43.846;25.952;2023-01-10T03:04:54;15.23;;;9.25;;
67065;SDS011;53978;43.846;25.952;2023-01-10T03:07:33;16.95;;;8.80;;
67065;SDS011;53978;43.846;25.952;2023-01-10T03:10:18;16.88;;;9.10;;
67065;SDS011;53978;43.846;25.952;2023-01-10T03:13:10;19.00;;;9.05;;
67065;SDS011;53978;43.846;25.952;2023-01-10T03:15:39;23.45;;;8.85;;
67065;SDS011;53978;43.846;25.952;2023-01-10T03:18:07;17.60;;;9.43;;
67065;SDS011;53978;43.846;25.952;2023-01-10T03:20:37;17.83;;;9.30;;
67065;SDS011;53978;43.846;25.952;2023-01-10T03:23:03;17.25;;;10.15;;
67065;SDS011;53978;43.846;25.952;2023-01-10T03:25:31;17.25;;;9.13;;
67065;SDS011;53978;43.846;25.952;2023-01-10T03:33:07;15.43;;;7.85;;
67065;SDS011;53978;43.846;25.952;2023-01-10T03:38:30;15.65;;;8.85;;
67065;SDS011;53978;43.846;25.952;2023-01-10T03:43:54;18.13;;;9.15;;
67065;SDS011;53978;43.846;25.952;2023-01-10T03:46:53;16.08;;;8.68;;
67065;SDS011;53978;43.846;25.952;2023-01-10T03:49:24;18.70;;;9.40;;
67065;SDS011;53978;43.846;25.952;2023-01-10T03:51:51;18.65;;;9.05;;
67065;SDS011;53978;43.846;25.952;2023-01-10T03:54:18;20.38;;;8.98;;
67065;SDS011;53978;43.846;25.952;2023-01-10T03:56:44;16.92;;;8.60;;
67065;SDS011;53978;43.846;25.952;2023-01-10T03:59:15;17.55;;;9.15;;
67065;SDS011;53978;43.846;25.952;2023-01-10T04:01:45;19.85;;;9.48;;
67065;SDS011;53978;43.846;25.952;2023-01-10T04:04:10;16.55;;;8.65;;
67065;SDS011;53978;43.846;25.952;2023-01-10T04:06:36;19.40;;;9.23;;
67065;SDS011;53978;43.846;25.952;2023-01-10T04:09:03;16.80;;;8.68;;
67065;SDS011;53978;43.846;25.952;2023-01-10T04:11:29;18.08;;;9.13;;
67065;SDS011;53978;43.846;25.952;2023-01-10T04:13:54;13.80;;;7.68;;
67065;SDS011;53978;43.846;25.952;2023-01-10T04:16:20;16.45;;;8.70;;
67065;SDS011;53978;43.846;25.952;2023-01-10T04:18:45;18.33;;;9.23;;
67065;SDS011;53978;43.846;25.952;2023-01-10T04:21:11;16.08;;;7.93;;
67065;SDS011;53978;43.846;25.952;2023-01-10T04:23:36;18.20;;;8.13;;
67065;SDS011;53978;43.846;25.952;2023-01-10T04:26:02;19.35;;;9.23;;
67065;SDS011;53978;43.846;25.952;2023-01-10T04:28:27;16.65;;;8.93;;
67065;SDS011;53978;43.846;25.952;2023-01-10T04:30:52;19.40;;;9.45;;
67065;SDS011;53978;43.846;25.952;2023-01-10T04:33:18;17.40;;;8.48;;
67065;SDS011;53978;43.846;25.952;2023-01-10T04:35:47;20.35;;;9.70;;
67065;SDS011;53978;43.846;25.952;2023-01-10T04:38:13;15.43;;;8.55;;
67065;SDS011;53978;43.846;25.952;2023-01-10T04:40:38;16.17;;;9.25;;
67065;SDS011;53978;43.846;25.952;2023-01-10T04:43:04;23.38;;;9.23;;
67065;SDS011;53978;43.846;25.952;2023-01-10T04:45:29;17.98;;;8.45;;
67065;SDS011;53978;43.846;25.952;2023-01-10T04:47:54;15.30;;;8.88;;
67065;SDS011;53978;43.846;25.952;2023-01-10T04:50:20;24.30;;;9.93;;
67065;SDS011;53978;43.846;25.952;2023-01-10T04:52:46;17.73;;;8.48;;
67065;SDS011;53978;43.846;25.952;2023-01-10T04:55:12;16.35;;;8.73;;
67065;SDS011;53978;43.846;25.952;2023-01-10T04:57:37;16.33;;;8.55;;
67065;SDS011;53978;43.846;25.952;2023-01-10T05:00:03;17.70;;;8.88;;
67065;SDS011;53978;43.846;25.952;2023-01-10T05:02:29;14.73;;;8.77;;
67065;SDS011;53978;43.846;25.952;2023-01-10T05:04:57;16.08;;;9.23;;
67065;SDS011;53978;43.846;25.952;2023-01-10T05:07:22;17.15;;;8.80;;
67065;SDS011;53978;43.846;25.952;2023-01-10T05:09:48;16.55;;;9.18;;
67065;SDS011;53978;43.846;25.952;2023-01-10T05:12:13;18.83;;;9.07;;
67065;SDS011;53978;43.846;25.952;2023-01-10T05:14:39;14.10;;;8.23;;
67065;SDS011;53978;43.846;25.952;2023-01-10T05:17:04;19.27;;;10.00;;
67065;SDS011;53978;43.846;25.952;2023-01-10T05:19:30;21.17;;;10.13;;
67065;SDS011;53978;43.846;25.952;2023-01-10T05:21:55;18.60;;;10.05;;
67065;SDS011;53978;43.846;25.952;2023-01-10T05:24:21;16.10;;;8.85;;
67065;SDS011;53978;43.846;25.952;2023-01-10T05:26:46;16.00;;;9.02;;
67065;SDS011;53978;43.846;25.952;2023-01-10T05:29:11;18.83;;;9.00;;
67065;SDS011;53978;43.846;25.952;2023-01-10T05:31:38;20.92;;;9.27;;
67065;SDS011;53978;43.846;25.952;2023-01-10T05:34:04;17.67;;;9.55;;
67065;SDS011;53978;43.846;25.952;2023-01-10T05:36:29;22.83;;;9.63;;
67065;SDS011;53978;43.846;25.952;2023-01-10T05:38:55;18.15;;;9.70;;
67065;SDS011;53978;43.846;25.952;2023-01-10T05:41:21;16.90;;;8.95;;
67065;SDS011;53978;43.846;25.952;2023-01-10T05:43:47;17.15;;;9.18;;
67065;SDS011;53978;43.846;25.952;2023-01-10T05:46:13;17.73;;;9.25;;
67065;SDS011;53978;43.846;25.952;2023-01-10T05:48:42;23.02;;;10.73;;
67065;SDS011;53978;43.846;25.952;2023-01-10T05:51:08;19.33;;;10.23;;
67065;SDS011;53978;43.846;25.952;2023-01-10T05:53:35;19.08;;;8.93;;
67065;SDS011;53978;43.846;25.952;2023-01-10T05:56:01;21.90;;;10.23;;
67065;SDS011;53978;43.846;25.952;2023-01-10T05:58:27;18.83;;;9.98;;
67065;SDS011;53978;43.846;25.952;2023-01-10T06:00:53;18.73;;;10.50;;
67065;SDS011;53978;43.846;25.952;2023-01-10T06:03:20;24.50;;;10.48;;
67065;SDS011;53978;43.846;25.952;2023-01-10T06:05:45;20.77;;;9.48;;
67065;SDS011;53978;43.846;25.952;2023-01-10T06:08:10;19.92;;;9.65;;
67065;SDS011;53978;43.846;25.952;2023-01-10T06:10:36;17.67;;;10.13;;
67065;SDS011;53978;43.846;25.952;2023-01-10T06:13:01;20.27;;;9.45;;
67065;SDS011;53978;43.846;25.952;2023-01-10T06:15:29;21.90;;;9.25;;
67065;SDS011;53978;43.846;25.952;2023-01-10T06:17:55;19.77;;;10.93;;
67065;SDS011;53978;43.846;25.952;2023-01-10T06:20:20;18.83;;;10.27;;
67065;SDS011;53978;43.846;25.952;2023-01-10T06:22:46;21.00;;;10.75;;
67065;SDS011;53978;43.846;25.952;2023-01-10T06:25:12;20.58;;;10.05;;
67065;SDS011;53978;43.846;25.952;2023-01-10T06:27:39;19.33;;;10.52;;
67065;SDS011;53978;43.846;25.952;2023-01-10T06:30:05;17.33;;;10.23;;
67065;SDS011;53978;43.846;25.952;2023-01-10T06:32:31;24.42;;;10.52;;
67065;SDS011;53978;43.846;25.952;2023-01-10T06:34:57;22.33;;;11.35;;
67065;SDS011;53978;43.846;25.952;2023-01-10T06:37:22;21.67;;;10.23;;
67065;SDS011;53978;43.846;25.952;2023-01-10T06:39:47;23.05;;;11.50;;
67065;SDS011;53978;43.846;25.952;2023-01-10T06:42:15;22.40;;;11.30;;
67065;SDS011;53978;43.846;25.952;2023-01-10T06:44:40;25.63;;;12.88;;
67065;SDS011;53978;43.846;25.952;2023-01-10T06:47:06;21.77;;;11.48;;
67065;SDS011;53978;43.846;25.952;2023-01-10T06:49:31;25.85;;;11.02;;
67065;SDS011;53978;43.846;25.952;2023-01-10T06:51:57;22.20;;;11.60;;
67065;SDS011;53978;43.846;25.952;2023-01-10T06:54:22;19.95;;;9.45;;
67065;SDS011;53978;43.846;25.952;2023-01-10T06:56:47;19.55;;;9.63;;
67065;SDS011;53978;43.846;25.952;2023-01-10T06:59:13;18.90;;;10.27;;
67065;SDS011;53978;43.846;25.952;2023-01-10T07:01:38;20.25;;;11.32;;
67065;SDS011;53978;43.846;25.952;2023-01-10T07:04:04;20.52;;;10.45;;
67065;SDS011;53978;43.846;25.952;2023-01-10T07:06:29;23.00;;;10.85;;
67065;SDS011;53978;43.846;25.952;2023-01-10T07:08:55;33.15;;;13.88;;
67065;SDS011;53978;43.846;25.952;2023-01-10T07:11:21;24.38;;;11.95;;
67065;SDS011;53978;43.846;25.952;2023-01-10T07:13:46;30.63;;;12.88;;
67065;SDS011;53978;43.846;25.952;2023-01-10T07:16:13;22.30;;;12.10;;
67065;SDS011;53978;43.846;25.952;2023-01-10T07:18:40;23.77;;;11.65;;
67065;SDS011;53978;43.846;25.952;2023-01-10T07:21:06;28.33;;;11.50;;
67065;SDS011;53978;43.846;25.952;2023-01-10T07:23:32;26.58;;;12.32;;
67065;SDS011;53978;43.846;25.952;2023-01-10T07:26:00;30.25;;;12.75;;
67065;SDS011;53978;43.846;25.952;2023-01-10T07:28:28;25.67;;;13.05;;
67065;SDS011;53978;43.846;25.952;2023-01-10T07:30:53;24.83;;;13.43;;
67065;SDS011;53978;43.846;25.952;2023-01-10T07:33:18;26.20;;;13.40;;
67065;SDS011;53978;43.846;25.952;2023-01-10T07:35:44;24.90;;;12.73;;
67065;SDS011;53978;43.846;25.952;2023-01-10T07:38:09;26.50;;;12.18;;
67065;SDS011;53978;43.846;25.952;2023-01-10T07:40:35;32.15;;;11.23;;
67065;SDS011;53978;43.846;25.952;2023-01-10T07:43:01;25.98;;;13.18;;
67065;SDS011;53978;43.846;25.952;2023-01-10T07:45:27;30.40;;;12.75;;
67065;SDS011;53978;43.846;25.952;2023-01-10T07:47:57;25.38;;;12.75;;
67065;SDS011;53978;43.846;25.952;2023-01-10T07:50:26;23.13;;;12.77;;
67065;SDS011;53978;43.846;25.952;2023-01-10T07:52:53;23.08;;;12.40;;
67065;SDS011;53978;43.846;25.952;2023-01-10T07:55:19;27.77;;;13.23;;
67065;SDS011;53978;43.846;25.952;2023-01-10T07:57:45;25.88;;;13.77;;
67065;SDS011;53978;43.846;25.952;2023-01-10T08:00:11;30.85;;;13.90;;
67065;SDS011;53978;43.846;25.952;2023-01-10T08:02:36;30.23;;;13.00;;
67065;SDS011;53978;43.846;25.952;2023-01-10T08:05:02;28.13;;;13.05;;
67065;SDS011;53978;43.846;25.952;2023-01-10T08:07:31;27.13;;;12.65;;
67065;SDS011;53978;43.846;25.952;2023-01-10T08:09:56;22.35;;;11.88;;
67065;SDS011;53978;43.846;25.952;2023-01-10T08:12:22;24.25;;;11.75;;
67065;SDS011;53978;43.846;25.952;2023-01-10T08:14:51;22.38;;;11.98;;
67065;SDS011;53978;43.846;25.952;2023-01-10T08:17:16;22.98;;;11.43;;
67065;SDS011;53978;43.846;25.952;2023-01-10T08:19:42;23.75;;;11.32;;
67065;SDS011;53978;43.846;25.952;2023-01-10T08:22:08;20.38;;;10.85;;
67065;SDS011;53978;43.846;25.952;2023-01-10T08:24:33;22.02;;;11.68;;
67065;SDS011;53978;43.846;25.952;2023-01-10T08:26:59;19.17;;;9.48;;
67065;SDS011;53978;43.846;25.952;2023-01-10T08:29:25;19.00;;;9.77;;
67065;SDS011;53978;43.846;25.952;2023-01-10T08:31:50;21.15;;;10.77;;
67065;SDS011;53978;43.846;25.952;2023-01-10T08:34:16;24.98;;;11.65;;
67065;SDS011;53978;43.846;25.952;2023-01-10T08:36:41;24.25;;;11.23;;
67065;SDS011;53978;43.846;25.952;2023-01-10T08:39:07;25.00;;;11.38;;
67065;SDS011;53978;43.846;25.952;2023-01-10T08:41:32;24.45;;;11.30;;
67065;SDS011;53978;43.846;25.952;2023-01-10T08:43:58;25.42;;;12.13;;
67065;SDS011;53978;43.846;25.952;2023-01-10T08:46:23;23.77;;;12.85;;
67065;SDS011;53978;43.846;25.952;2023-01-10T08:48:49;26.95;;;13.20;;
67065;SDS011;53978;43.846;25.952;2023-01-10T08:51:16;24.27;;;12.18;;
67065;SDS011;53978;43.846;25.952;2023-01-10T08:53:41;25.30;;;12.20;;
67065;SDS011;53978;43.846;25.952;2023-01-10T08:56:07;22.67;;;10.68;;
67065;SDS011;53978;43.846;25.952;2023-01-10T08:58:33;23.60;;;11.60;;
67065;SDS011;53978;43.846;25.952;2023-01-10T09:00:59;22.58;;;12.02;;
67065;SDS011;53978;43.846;25.952;2023-01-10T09:03:28;25.58;;;11.63;;
67065;SDS011;53978;43.846;25.952;2023-01-10T09:05:53;22.17;;;11.80;;
67065;SDS011;53978;43.846;25.952;2023-01-10T09:08:18;26.05;;;11.93;;
67065;SDS011;53978;43.846;25.952;2023-01-10T09:10:44;26.40;;;12.45;;
67065;SDS011;53978;43.846;25.952;2023-01-10T09:13:09;24.08;;;12.20;;
67065;SDS011;53978;43.846;25.952;2023-01-10T09:15:35;22.58;;;12.40;;
67065;SDS011;53978;43.846;25.952;2023-01-10T09:18:03;20.88;;;12.00;;
67065;SDS011;53978;43.846;25.952;2023-01-10T09:20:29;26.02;;;14.45;;
67065;SDS011;53978;43.846;25.952;2023-01-10T09:22:56;29.90;;;15.25;;
67065;SDS011;53978;43.846;25.952;2023-01-10T09:25:22;23.55;;;12.45;;
67065;SDS011;53978;43.846;25.952;2023-01-10T09:27:54;22.92;;;12.77;;
67065;SDS011;53978;43.846;25.952;2023-01-10T09:30:21;23.73;;;12.88;;
67065;SDS011;53978;43.846;25.952;2023-01-10T09:32:50;22.17;;;11.90;;
67065;SDS011;53978;43.846;25.952;2023-01-10T09:35:17;28.63;;;13.93;;
67065;SDS011;53978;43.846;25.952;2023-01-10T09:37:42;30.17;;;14.38;;
67065;SDS011;53978;43.846;25.952;2023-01-10T09:40:08;27.45;;;13.52;;
67065;SDS011;53978;43.846;25.952;2023-01-10T09:42:39;32.75;;;14.25;;
67065;SDS011;53978;43.846;25.952;2023-01-10T09:45:14;29.60;;;14.00;;
67065;SDS011;53978;43.846;25.952;2023-01-10T09:50:19;28.00;;;13.63;;
67065;SDS011;53978;43.846;25.952;2023-01-10T09:53:01;27.13;;;13.70;;
67065;SDS011;53978;43.846;25.952;2023-01-10T09:55:34;23.25;;;13.80;;
67065;SDS011;53978;43.846;25.952;2023-01-10T09:58:05;24.95;;;13.45;;
67065;SDS011;53978;43.846;25.952;2023-01-10T10:00:38;25.08;;;13.52;;
67065;SDS011;53978;43.846;25.952;2023-01-10T10:06:06;24.13;;;12.85;;
67065;SDS011;53978;43.846;25.952;2023-01-10T10:08:35;27.67;;;13.13;;
67065;SDS011;53978;43.846;25.952;2023-01-10T10:11:16;25.95;;;13.00;;
67065;SDS011;53978;43.846;25.952;2023-01-10T10:13:59;26.88;;;12.90;;
67065;SDS011;53978;43.846;25.952;2023-01-10T10:19:10;26.15;;;13.25;;
67065;SDS011;53978;43.846;25.952;2023-01-10T10:35:11;27.15;;;14.75;;
67065;SDS011;53978;43.846;25.952;2023-01-10T10:37:46;30.13;;;13.60;;
67065;SDS011;53978;43.846;25.952;2023-01-10T10:40:18;28.92;;;14.60;;
67065;SDS011;53978;43.846;25.952;2023-01-10T10:42:47;27.05;;;15.05;;
67065;SDS011;53978;43.846;25.952;2023-01-10T10:48:04;27.92;;;14.82;;
67065;SDS011;53978;43.846;25.952;2023-01-10T10:50:35;25.52;;;13.10;;
67065;SDS011;53978;43.846;25.952;2023-01-10T10:53:08;30.55;;;15.73;;
67065;SDS011;53978;43.846;25.952;2023-01-10T10:55:34;29.98;;;14.73;;
67065;SDS011;53978;43.846;25.952;2023-01-10T10:58:01;27.27;;;14.35;;
67065;SDS011;53978;43.846;25.952;2023-01-10T11:00:27;24.40;;;13.60;;
67065;SDS011;53978;43.846;25.952;2023-01-10T11:02:58;24.92;;;14.77;;
67065;SDS011;53978;43.846;25.952;2023-01-10T11:06:01;31.02;;;15.60;;
67065;SDS011;53978;43.846;25.952;2023-01-10T11:08:19;30.50;;;15.93;;
67065;SDS011;53978;43.846;25.952;2023-01-10T11:10:53;32.35;;;16.13;;
67065;SDS011;53978;43.846;25.952;2023-01-10T11:13:29;30.25;;;17.13;;
67065;SDS011;53978;43.846;25.952;2023-01-10T11:16:05;37.28;;;17.70;;
67065;SDS011;53978;43.846;25.952;2023-01-10T11:18:31;32.05;;;17.45;;
67065;SDS011;53978;43.846;25.952;2023-01-10T11:26:23;28.55;;;15.68;;
67065;SDS011;53978;43.846;25.952;2023-01-10T11:29:02;27.08;;;15.57;;
67065;SDS011;53978;43.846;25.952;2023-01-10T11:31:42;24.85;;;14.68;;
67065;SDS011;53978;43.846;25.952;2023-01-10T11:34:24;34.92;;;16.35;;
67065;SDS011;53978;43.846;25.952;2023-01-10T11:39:43;34.15;;;16.25;;
67065;SDS011;53978;43.846;25.952;2023-01-10T11:42:26;27.20;;;14.30;;
67065;SDS011;53978;43.846;25.952;2023-01-10T11:44:54;28.00;;;12.52;;
67065;SDS011;53978;43.846;25.952;2023-01-10T11:47:20;21.05;;;12.93;;
67065;SDS011;53978;43.846;25.952;2023-01-10T11:49:46;20.88;;;13.45;;
67065;SDS011;53978;43.846;25.952;2023-01-10T11:52:20;26.15;;;13.55;;
67065;SDS011;53978;43.846;25.952;2023-01-10T11:54:49;24.35;;;13.75;;
67065;SDS011;53978;43.846;25.952;2023-01-10T11:57:20;22.70;;;13.63;;
67065;SDS011;53978;43.846;25.952;2023-01-10T11:59:54;21.58;;;11.65;;
67065;SDS011;53978;43.846;25.952;2023-01-10T12:02:26;18.40;;;10.35;;
67065;SDS011;53978;43.846;25.952;2023-01-10T12:04:56;17.38;;;10.30;;
67065;SDS011;53978;43.846;25.952;2023-01-10T12:07:23;17.30;;;9.60;;
67065;SDS011;53978;43.846;25.952;2023-01-10T12:09:58;14.65;;;9.15;;
67065;SDS011;53978;43.846;25.952;2023-01-10T12:14:51;14.88;;;8.68;;
67065;SDS011;53978;43.846;25.952;2023-01-10T12:17:28;13.10;;;8.10;;
67065;SDS011;53978;43.846;25.952;2023-01-10T12:19:55;13.60;;;7.80;;
67065;SDS011;53978;43.846;25.952;2023-01-10T12:22:46;12.98;;;8.43;;
67065;SDS011;53978;43.846;25.952;2023-01-10T12:25:53;15.90;;;9.13;;
67065;SDS011;53978;43.846;25.952;2023-01-10T12:28:12;33.20;;;12.63;;
67065;SDS011;53978;43.846;25.952;2023-01-10T12:30:43;17.60;;;9.90;;
67065;SDS011;53978;43.846;25.952;2023-01-10T12:33:15;19.73;;;9.43;;
67065;SDS011;53978;43.846;25.952;2023-01-10T12:44:46;16.63;;;8.55;;
67065;SDS011;53978;43.846;25.952;2023-01-10T12:49:56;13.73;;;8.05;;
67065;SDS011;53978;43.846;25.952;2023-01-10T12:54:55;14.38;;;8.05;;
67065;SDS011;53978;43.846;25.952;2023-01-10T12:57:25;10.88;;;7.57;;
67065;SDS011;53978;43.846;25.952;2023-01-10T12:59:52;10.40;;;7.18;;
67065;SDS011;53978;43.846;25.952;2023-01-10T13:02:18;14.30;;;8.45;;
67065;SDS011;53978;43.846;25.952;2023-01-10T13:04:48;13.25;;;7.82;;
67065;SDS011;53978;43.846;25.952;2023-01-10T13:07:17;10.00;;;6.88;;
67065;SDS011;53978;43.846;25.952;2023-01-10T13:09:42;12.10;;;6.95;;
67065;SDS011;53978;43.846;25.952;2023-01-10T13:12:17;14.32;;;7.85;;
67065;SDS011;53978;43.846;25.952;2023-01-10T13:15:05;13.48;;;7.50;;
67065;SDS011;53978;43.846;25.952;2023-01-10T13:17:58;13.07;;;7.68;;
67065;SDS011;53978;43.846;25.952;2023-01-10T13:20:28;15.45;;;8.73;;
67065;SDS011;53978;43.846;25.952;2023-01-10T13:22:56;13.18;;;8.23;;
67065;SDS011;53978;43.846;25.952;2023-01-10T13:27:54;12.25;;;7.53;;
67065;SDS011;53978;43.846;25.952;2023-01-10T13:30:30;10.18;;;7.25;;
67065;SDS011;53978;43.846;25.952;2023-01-10T13:33:06;9.15;;;6.80;;
67065;SDS011;53978;43.846;25.952;2023-01-10T13:35:42;11.93;;;7.10;;
67065;SDS011;53978;43.846;25.952;2023-01-10T13:40:56;11.52;;;7.68;;
67065;SDS011;53978;43.846;25.952;2023-01-10T13:48:41;13.43;;;7.72;;
67065;SDS011;53978;43.846;25.952;2023-01-10T13:51:29;10.82;;;7.45;;
67065;SDS011;53978;43.846;25.952;2023-01-10T13:53:56;14.95;;;9.00;;
67065;SDS011;53978;43.846;25.952;2023-01-10T13:56:45;14.23;;;7.72;;
67065;SDS011;53978;43.846;25.952;2023-01-10T14:02:14;15.43;;;8.50;;
67065;SDS011;53978;43.846;25.952;2023-01-10T14:04:56;15.32;;;8.75;;
67065;SDS011;53978;43.846;25.952;2023-01-10T14:07:30;17.40;;;9.07;;
67065;SDS011;53978;43.846;25.952;2023-01-10T14:10:09;14.60;;;8.13;;
67065;SDS011;53978;43.846;25.952;2023-01-10T14:15:28;15.40;;;8.95;;
67065;SDS011;53978;43.846;25.952;2023-01-10T14:18:06;14.60;;;8.93;;
67065;SDS011;53978;43.846;25.952;2023-01-10T14:20:40;13.95;;;8.27;;
67065;SDS011;53978;43.846;25.952;2023-01-10T14:23:07;14.45;;;7.72;;
67065;SDS011;53978;43.846;25.952;2023-01-10T14:25:41;13.15;;;8.25;;
67065;SDS011;53978;43.846;25.952;2023-01-10T14:28:19;19.30;;;10.23;;
67065;SDS011;53978;43.846;25.952;2023-01-10T14:30:51;16.73;;;8.90;;
67065;SDS011;53978;43.846;25.952;2023-01-10T14:33:28;11.93;;;8.20;;
67065;SDS011;53978;43.846;25.952;2023-01-10T14:35:55;14.25;;;8.70;;
67065;SDS011;53978;43.846;25.952;2023-01-10T14:38:24;16.85;;;9.13;;
67065;SDS011;53978;43.846;25.952;2023-01-10T14:40:54;15.40;;;8.23;;
67065;SDS011;53978;43.846;25.952;2023-01-10T14:43:23;14.02;;;8.77;;
67065;SDS011;53978;43.846;25.952;2023-01-10T14:45:52;13.95;;;8.05;;
67065;SDS011;53978;43.846;25.952;2023-01-10T14:48:24;13.45;;;8.02;;
67065;SDS011;53978;43.846;25.952;2023-01-10T14:51:15;16.70;;;8.70;;
67065;SDS011;53978;43.846;25.952;2023-01-10T14:53:42;18.67;;;9.27;;
67065;SDS011;53978;43.846;25.952;2023-01-10T14:56:19;16.52;;;9.18;;
67065;SDS011;53978;43.846;25.952;2023-01-10T14:58:45;14.10;;;7.45;;
67065;SDS011;53978;43.846;25.952;2023-01-10T15:01:10;13.13;;;7.70;;
67065;SDS011;53978;43.846;25.952;2023-01-10T15:03:48;12.98;;;7.20;;
67065;SDS011;53978;43.846;25.952;2023-01-10T15:06:13;16.77;;;7.38;;
67065;SDS011;53978;43.846;25.952;2023-01-10T15:08:39;18.77;;;8.23;;
67065;SDS011;53978;43.846;25.952;2023-01-10T15:11:05;11.75;;;7.03;;
67065;SDS011;53978;43.846;25.952;2023-01-10T15:13:33;13.05;;;7.20;;
67065;SDS011;53978;43.846;25.952;2023-01-10T15:16:00;10.80;;;7.20;;
67065;SDS011;53978;43.846;25.952;2023-01-10T15:18:27;11.02;;;7.03;;
67065;SDS011;53978;43.846;25.952;2023-01-10T15:21:09;10.38;;;6.95;;
67065;SDS011;53978;43.846;25.952;2023-01-10T15:23:37;10.77;;;7.07;;
67065;SDS011;53978;43.846;25.952;2023-01-10T15:26:10;18.58;;;7.10;;
67065;SDS011;53978;43.846;25.952;2023-01-10T15:28:43;13.80;;;7.63;;
67065;SDS011;53978;43.846;25.952;2023-01-10T15:31:13;11.30;;;7.38;;
67065;SDS011;53978;43.846;25.952;2023-01-10T15:33:41;12.43;;;7.40;;
67065;SDS011;53978;43.846;25.952;2023-01-10T15:36:16;11.77;;;7.03;;
67065;SDS011;53978;43.846;25.952;2023-01-10T15:38:45;11.68;;;6.72;;
67065;SDS011;53978;43.846;25.952;2023-01-10T15:41:15;12.07;;;6.93;;
67065;SDS011;53978;43.846;25.952;2023-01-10T15:43:42;10.90;;;6.80;;
67065;SDS011;53978;43.846;25.952;2023-01-10T15:46:15;12.00;;;6.57;;
67065;SDS011;53978;43.846;25.952;2023-01-10T15:48:52;9.45;;;6.00;;
67065;SDS011;53978;43.846;25.952;2023-01-10T15:51:27;10.90;;;6.63;;
67065;SDS011;53978;43.846;25.952;2023-01-10T15:56:52;11.00;;;6.63;;
67065;SDS011;53978;43.846;25.952;2023-01-10T16:05:14;11.02;;;7.10;;
67065;SDS011;53978;43.846;25.952;2023-01-10T16:07:43;13.40;;;6.75;;
67065;SDS011;53978;43.846;25.952;2023-01-10T16:12:44;10.45;;;7.03;;
67065;SDS011;53978;43.846;25.952;2023-01-10T16:15:29;11.98;;;7.47;;
67065;SDS011;53978;43.846;25.952;2023-01-10T16:17:58;12.77;;;6.45;;
67065;SDS011;53978;43.846;25.952;2023-01-10T16:20:31;11.75;;;6.72;;